createdAt,value
2022-11-15T00:00:42.762Z,12.1
2022-11-15T00:02:46.576Z,8.1
2022-11-15T00:04:50.414Z,10.9
2022-11-15T00:06:54.278Z,9.8
2022-11-15T00:08:58.097Z,9.1
2022-11-15T00:13:05.793Z,6.8
2022-11-15T00:15:12.537Z,10.1
2022-11-15T00:17:16.357Z,11.9
2022-11-15T00:19:20.188Z,9.3
2022-11-15T00:21:24.015Z,8.1
2022-11-15T00:25:31.782Z,10
2022-11-15T00:27:35.602Z,7.8
2022-11-15T00:29:42.253Z,12
2022-11-15T00:31:46.086Z,10.2
2022-11-15T00:33:49.925Z,10.6
2022-11-15T00:35:53.751Z,9.5
2022-11-15T00:37:57.683Z,9.8
2022-11-15T00:40:01.527Z,7.7
2022-11-15T00:42:05.365Z,9.2
2022-11-15T00:44:12.024Z,9.5
2022-11-15T00:48:19.789Z,9.3
2022-11-15T00:50:43.588Z,13.3
2022-11-15T00:52:47.435Z,11.6
2022-11-15T00:54:51.297Z,10.7
2022-11-15T00:56:58.148Z,12.3
2022-11-15T00:59:02.094Z,11.2
2022-11-15T01:01:06.077Z,11.1
2022-11-15T01:03:09.852Z,8.2
2022-11-15T01:05:13.831Z,11.9
2022-11-15T01:07:17.713Z,12.1
2022-11-15T01:09:21.502Z,11.6
2022-11-15T01:11:28.155Z,14.5
2022-11-15T01:13:32.592Z,8.7
2022-11-15T01:15:35.854Z,11.7
2022-11-15T01:17:39.797Z,7.9
2022-11-15T01:19:43.756Z,9
2022-11-15T01:21:47.707Z,10.6
2022-11-15T01:23:51.777Z,10.6
2022-11-15T01:25:58.271Z,10.8
2022-11-15T01:28:02.132Z,12.6
2022-11-15T01:30:05.972Z,11.4
2022-11-15T01:32:09.808Z,9
2022-11-15T01:34:13.658Z,11.7
2022-11-15T01:36:17.535Z,9.9
2022-11-15T01:38:21.465Z,12.5
2022-11-15T01:44:35.918Z,9.2
2022-11-15T01:47:44.580Z,11
2022-11-15T01:49:48.405Z,9
2022-11-15T01:51:52.254Z,11.2
2022-11-15T01:53:59.016Z,12.9
2022-11-15T01:56:02.883Z,9.1
2022-11-15T01:58:06.710Z,9.8
2022-11-15T02:00:10.567Z,9.2
2022-11-15T02:02:14.418Z,9.6
2022-11-15T02:04:18.291Z,10.3
2022-11-15T02:10:32.732Z,10
2022-11-15T02:22:58.891Z,9.7
2022-11-15T02:25:02.757Z,12.8
2022-11-15T02:27:06.597Z,11.1
2022-11-15T02:31:14.387Z,10
2022-11-15T02:33:18.246Z,10.2
2022-11-15T02:35:22.128Z,11
2022-11-15T02:37:28.777Z,9.2
2022-11-15T02:39:32.681Z,10.9
2022-11-15T02:41:36.713Z,11
2022-11-15T02:42:40.101Z,11.4
2022-11-15T02:44:43.929Z,12
2022-11-15T02:46:47.901Z,14
2022-11-15T02:48:51.734Z,11.9
2022-11-15T02:50:58.415Z,11.5
2022-11-15T02:53:02.265Z,11.7
2022-11-15T02:55:06.122Z,9.5
2022-11-15T02:59:13.897Z,13.2
2022-11-15T03:01:17.897Z,11.4
2022-11-15T03:03:21.767Z,11.4
2022-11-15T03:13:43.857Z,11.6
2022-11-15T03:15:47.715Z,11.1
2022-11-15T03:17:51.575Z,11.1
2022-11-15T03:19:58.245Z,14.2
2022-11-15T03:22:02.153Z,10.1
2022-11-15T03:24:06.004Z,11.6
2022-11-15T03:26:09.883Z,13.1
2022-11-15T03:28:13.744Z,10.3
2022-11-15T03:30:17.609Z,9.3
2022-11-15T03:32:21.477Z,11.8
2022-11-15T03:34:28.129Z,11.1
2022-11-15T03:36:32.013Z,10.6
2022-11-15T03:38:35.982Z,10.6
2022-11-15T03:39:39.233Z,11
2022-11-15T03:41:43.107Z,9.1
2022-11-15T03:43:46.977Z,9.8
2022-11-15T03:45:50.850Z,11
2022-11-15T03:47:55.639Z,9.8
2022-11-15T03:49:59.500Z,12.1
2022-11-15T03:52:03.403Z,12.2
2022-11-15T03:54:07.248Z,10.5
2022-11-15T03:56:11.115Z,11
2022-11-15T03:58:14.991Z,11
2022-11-15T04:00:18.858Z,12.1
2022-11-15T04:02:25.548Z,11.3
2022-11-15T04:04:29.433Z,10.8
2022-11-15T04:06:33.308Z,11
2022-11-15T04:08:37.157Z,9
2022-11-15T04:10:41.043Z,11.1
2022-11-15T04:12:44.907Z,11.6
2022-11-15T04:14:48.790Z,11.2
2022-11-15T04:16:55.572Z,11.4
2022-11-15T04:18:59.448Z,10.9
2022-11-15T04:21:03.320Z,12.4
2022-11-15T04:23:07.224Z,11
2022-11-15T04:25:11.102Z,11.1
2022-11-15T04:27:14.994Z,9.9
2022-11-15T04:35:33.321Z,10.5
2022-11-15T04:37:57.313Z,12.9
2022-11-15T04:42:05.087Z,12.6
2022-11-15T04:46:15.760Z,8.9
2022-11-15T04:50:23.539Z,12.2
2022-11-15T05:00:45.962Z,12.5
2022-11-15T05:04:53.673Z,12.1
2022-11-15T05:06:57.805Z,10.8
2022-11-15T05:09:01.568Z,12.1
2022-11-15T05:11:05.481Z,12
2022-11-15T05:13:12.323Z,12.3
2022-11-15T05:15:16.208Z,11.8
2022-11-15T05:19:23.984Z,11.4
2022-11-15T05:25:35.760Z,9.8
2022-11-15T05:27:42.468Z,10.5
2022-11-15T05:29:46.346Z,11.1
2022-11-15T05:32:53.605Z,13.2
2022-11-15T05:34:57.505Z,12.2
2022-11-15T05:37:01.394Z,10.7
2022-11-15T05:39:05.279Z,9.1
2022-11-15T05:43:15.934Z,11.6
2022-11-15T05:47:23.714Z,10.9
2022-11-15T05:57:46.038Z,10
2022-11-15T06:06:01.707Z,12.5
2022-11-15T06:08:05.613Z,10.7
2022-11-15T06:10:12.334Z,11.8
2022-11-15T06:12:16.218Z,12.2
2022-11-15T06:14:20.107Z,10
2022-11-15T06:16:24.040Z,13.8
2022-11-15T06:18:27.941Z,11.1
2022-11-15T06:22:35.736Z,12.1
2022-11-15T06:26:46.328Z,12.6
2022-11-15T06:28:50.255Z,11
2022-11-15T06:29:53.697Z,12.5
2022-11-15T06:31:57.589Z,10
2022-11-15T06:34:01.477Z,9.8
2022-11-15T06:36:05.408Z,11.2
2022-11-15T06:38:12.078Z,11.3
2022-11-15T06:40:16.009Z,11.1
2022-11-15T06:42:19.893Z,11.4
2022-11-15T06:44:23.793Z,10.1
2022-11-15T06:46:27.705Z,10.8
2022-11-15T06:48:31.603Z,12
2022-11-15T06:50:35.497Z,10.4
2022-11-15T06:54:46.119Z,11.5
2022-11-15T06:56:50.016Z,13.3
2022-11-15T06:58:54.014Z,12.4
2022-11-15T07:00:57.941Z,10.7
2022-11-15T07:03:01.820Z,12.5
2022-11-15T07:05:05.731Z,12.7
2022-11-15T07:07:12.547Z,12.9
2022-11-15T07:09:16.333Z,12.5
2022-11-15T07:13:24.150Z,13.1
2022-11-15T07:15:28.061Z,12.3
2022-11-15T07:17:31.970Z,11.3
2022-11-15T07:19:35.861Z,14.1
2022-11-15T07:21:42.567Z,13.4
2022-11-15T07:26:53.727Z,14.1
2022-11-15T07:33:05.453Z,10.3
2022-11-15T07:37:16.057Z,12.4
2022-11-15T07:39:19.957Z,13.7
2022-11-15T07:41:23.859Z,12
2022-11-15T07:43:27.742Z,12
2022-11-15T07:45:33.159Z,11.5
2022-11-15T07:47:37.008Z,11
2022-11-15T07:49:43.708Z,15
2022-11-15T07:51:47.620Z,12.2
2022-11-15T07:53:51.519Z,11.7
2022-11-15T07:55:55.326Z,12.4
2022-11-15T07:57:59.219Z,12.7
2022-11-15T08:02:07.180Z,12.7
2022-11-15T08:06:17.624Z,12.9
2022-11-15T08:08:21.679Z,14.7
2022-11-15T08:10:25.456Z,11.2
2022-11-15T08:12:29.453Z,12.2
2022-11-15T08:14:33.250Z,11.8
2022-11-15T08:16:37.135Z,12.6
2022-11-15T08:18:43.964Z,10.5
2022-11-15T08:20:47.845Z,11.1
2022-11-15T08:22:51.750Z,9.4
2022-11-15T08:25:21.367Z,11.1
2022-11-15T08:27:25.356Z,9.7
2022-11-15T08:29:29.161Z,10
2022-11-15T08:31:35.893Z,11.9
2022-11-15T08:33:39.808Z,9.6
2022-11-15T08:35:43.704Z,8.9
2022-11-15T08:37:47.601Z,8.6
2022-11-15T08:39:51.494Z,10.5
2022-11-15T08:41:55.385Z,9.6
2022-11-15T08:43:59.319Z,11.4
2022-11-15T08:48:09.909Z,11.9
2022-11-15T08:50:13.797Z,9.3
2022-11-15T08:52:17.685Z,10.4
2022-11-15T08:54:21.615Z,9.5
2022-11-15T08:56:25.513Z,10.3
2022-11-15T08:58:29.605Z,11.4
2022-11-15T09:00:36.147Z,8.3
2022-11-15T09:02:40.030Z,11.3
2022-11-15T09:04:43.921Z,9.7
2022-11-15T09:06:47.930Z,9.6
2022-11-15T09:08:51.753Z,8.9
2022-11-15T09:10:55.644Z,11.3
2022-11-15T09:12:59.535Z,7.7
2022-11-15T09:15:06.234Z,10.1
2022-11-15T09:17:10.137Z,8.8
2022-11-15T09:19:14.041Z,7.8
2022-11-15T09:20:17.420Z,9
2022-11-15T09:22:21.311Z,10.3
2022-11-15T09:24:25.206Z,8.7
2022-11-15T09:26:29.244Z,7.5
2022-11-15T09:28:35.965Z,9.5
2022-11-15T09:30:39.864Z,8.7
2022-11-15T09:32:43.624Z,7.1
2022-11-15T09:34:47.521Z,8.6
2022-11-15T09:36:51.415Z,7.9
2022-11-15T09:38:55.346Z,7
2022-11-15T09:40:59.311Z,9.8
2022-11-15T09:43:05.991Z,8.1
2022-11-15T09:45:09.894Z,7.7
2022-11-15T09:47:13.780Z,9.4
2022-11-15T09:49:17.702Z,6.7
2022-11-15T09:51:21.609Z,6.1
2022-11-15T09:53:50.735Z,9
2022-11-15T09:55:29.448Z,7.7
2022-11-15T09:57:36.169Z,3
2022-11-15T09:59:40.072Z,6.1
2022-11-15T10:01:44.058Z,8
2022-11-15T10:03:48.153Z,7.5
2022-11-15T10:05:52.069Z,6.6
2022-11-15T10:07:55.976Z,5.4
2022-11-15T10:09:59.892Z,7.7
2022-11-15T10:12:06.615Z,7.2
2022-11-15T10:14:10.552Z,7.2
2022-11-15T10:16:14.458Z,5.7
2022-11-15T10:17:17.824Z,7
2022-11-15T10:19:21.758Z,6.5
2022-11-15T10:21:25.690Z,4.2
2022-11-15T10:23:29.622Z,4.8
2022-11-15T10:25:36.360Z,4.1
2022-11-15T10:29:44.202Z,5.8
2022-11-15T10:31:48.146Z,4.1
2022-11-15T10:33:52.076Z,4.5
2022-11-15T10:35:56.008Z,4.4
2022-11-15T10:37:59.905Z,4.3
2022-11-15T10:40:06.671Z,3.8
2022-11-15T10:42:14.056Z,2.9
2022-11-15T10:44:14.505Z,4
2022-11-15T10:46:44.392Z,4.4
2022-11-15T10:48:22.357Z,4.3
2022-11-15T10:50:26.271Z,4.2
2022-11-15T10:52:30.337Z,3.3
2022-11-15T10:54:36.914Z,3.7
2022-11-15T10:56:40.842Z,4.8
2022-11-15T11:00:48.692Z,4.7
2022-11-15T11:02:52.608Z,3.7
2022-11-15T11:04:56.533Z,3.3
2022-11-15T11:13:15.041Z,3.3
2022-11-15T11:14:18.415Z,2.1
2022-11-15T11:16:22.340Z,3.3
2022-11-15T11:18:26.237Z,3
2022-11-15T11:26:44.752Z,3
2022-11-15T11:30:52.573Z,2.6
2022-11-15T11:37:07.133Z,2.2
2022-11-15T11:39:11.033Z,2.3
2022-11-15T11:41:14.967Z,2.4
2022-11-15T11:43:18.889Z,2.1
2022-11-15T11:45:22.793Z,1.9
2022-11-15T11:47:26.720Z,2.8
2022-11-15T11:49:30.633Z,1.2
2022-11-15T11:51:37.376Z,1.5
2022-11-15T11:55:45.214Z,1.9
2022-11-15T11:57:49.124Z,1.4
2022-11-15T11:59:53.051Z,1.5
2022-11-15T12:01:57.127Z,2
2022-11-15T12:04:01.079Z,1.7
2022-11-15T12:06:07.592Z,2.2
2022-11-15T12:08:11.521Z,1.4
2022-11-15T12:10:15.436Z,1.2
2022-11-15T12:12:45.111Z,1.2
2022-11-15T12:14:49.016Z,1.4
2022-11-15T12:16:52.944Z,1.4
2022-11-15T12:18:59.689Z,1.7
2022-11-15T12:21:03.598Z,1.7
2022-11-15T12:23:07.524Z,1.2
2022-11-15T12:25:11.445Z,1.5
2022-11-15T12:27:15.359Z,1.6
2022-11-15T12:29:19.271Z,0.6
2022-11-15T12:31:23.201Z,0.9
2022-11-15T12:33:29.921Z,2.2
2022-11-15T12:35:33.855Z,0.7
2022-11-15T12:37:37.772Z,1.1
2022-11-15T12:39:41.692Z,1
2022-11-15T12:41:45.606Z,0.9
2022-11-15T12:43:49.510Z,0.9
2022-11-15T12:45:53.433Z,0.9
2022-11-15T12:48:00.171Z,1
2022-11-15T12:50:04.078Z,0.8
2022-11-15T12:52:08.016Z,1
2022-11-15T12:54:11.929Z,0.6
2022-11-15T12:56:15.851Z,1.5
2022-11-15T12:58:19.762Z,0.9
2022-11-15T13:00:25.446Z,0.8
2022-11-15T13:02:30.416Z,1.1
2022-11-15T13:04:34.334Z,0.8
2022-11-15T13:06:38.267Z,1.2
2022-11-15T13:07:41.730Z,1.3
2022-11-15T13:09:45.549Z,0.8
2022-11-15T13:11:49.474Z,0.9
2022-11-15T13:13:53.387Z,0.5
2022-11-15T13:16:00.264Z,0.8
2022-11-15T13:18:04.065Z,1
2022-11-15T13:20:08.008Z,0.8
2022-11-15T13:22:11.911Z,0.9
2022-11-15T13:32:34.299Z,0.6
2022-11-15T13:34:51.439Z,0.7
2022-11-15T13:36:42.137Z,1.1
2022-11-15T13:38:46.060Z,0.7
2022-11-15T13:40:49.974Z,0.6
2022-11-15T13:42:55.374Z,0.8
2022-11-15T13:45:02.092Z,0.9
2022-11-15T13:47:05.994Z,0.9
2022-11-15T13:49:09.925Z,0.9
2022-11-15T13:51:13.833Z,0.9
2022-11-15T13:53:17.745Z,0.7
2022-11-15T13:55:21.654Z,1.1
2022-11-15T13:59:32.301Z,1.2
2022-11-15T14:01:36.225Z,1.3
2022-11-15T14:04:43.513Z,0.7
2022-11-15T14:06:47.888Z,0.6
2022-11-15T14:08:51.384Z,0.5
2022-11-15T14:10:55.221Z,0.7
2022-11-15T14:13:01.980Z,1.1
2022-11-15T14:15:05.876Z,1
2022-11-15T14:19:13.708Z,1.2
2022-11-15T14:23:21.527Z,0.7
2022-11-15T14:25:25.464Z,1.3
2022-11-15T14:27:32.192Z,1.9
2022-11-15T14:29:36.081Z,1.6
2022-11-15T14:31:43.747Z,1.1
2022-11-15T14:35:47.800Z,1
2022-11-15T14:37:51.721Z,1.3
2022-11-15T14:39:55.613Z,0.8
2022-11-15T14:42:02.353Z,1.4
2022-11-15T14:48:14.066Z,1.4
2022-11-15T14:50:17.994Z,1
2022-11-15T14:52:21.875Z,0.8
2022-11-15T14:54:25.787Z,1.6
2022-11-15T14:56:32.501Z,1.3
2022-11-15T14:58:36.401Z,1.6
2022-11-15T15:00:40.312Z,1.3
2022-11-15T15:01:43.675Z,1.2
2022-11-15T15:03:47.584Z,1.4
2022-11-15T15:07:55.570Z,1
2022-11-15T15:10:37.761Z,1.4
2022-11-15T15:12:06.497Z,2
2022-11-15T15:16:13.868Z,1.5
2022-11-15T15:20:21.699Z,1.1
2022-11-15T15:22:25.614Z,1.4
2022-11-15T15:24:32.323Z,1.4
2022-11-15T15:26:36.253Z,1.7
2022-11-15T15:30:44.081Z,1.6
2022-11-15T15:32:47.959Z,1.5
2022-11-15T15:34:51.883Z,1
2022-11-15T15:39:02.502Z,1.2
2022-11-15T15:41:06.412Z,1.8
2022-11-15T15:45:14.264Z,1.8
2022-11-15T15:49:22.062Z,1.8
2022-11-15T15:51:26.276Z,1.6
2022-11-15T15:53:32.708Z,1.7
2022-11-15T15:55:36.625Z,1.2
2022-11-15T15:57:40.535Z,1.7
2022-11-15T16:00:10.163Z,1.6
2022-11-15T16:02:14.070Z,1.1
2022-11-15T16:04:17.993Z,1.3
2022-11-15T16:06:24.689Z,1.4
2022-11-15T16:08:37.958Z,1.5
2022-11-15T16:10:32.526Z,1.5
2022-11-15T16:12:36.455Z,2
2022-11-15T16:16:44.272Z,3.1
2022-11-15T16:18:48.190Z,1.3
2022-11-15T16:20:54.921Z,1.5
2022-11-15T16:22:58.823Z,1.2
2022-11-15T16:27:06.654Z,1.6
2022-11-15T16:29:10.589Z,1.5
2022-11-15T16:31:14.502Z,1.8
2022-11-15T16:33:18.451Z,1.3
2022-11-15T16:35:25.153Z,1.5
2022-11-15T16:37:29.074Z,1.6
2022-11-15T16:39:32.971Z,1.2
2022-11-15T16:41:36.903Z,1.2
2022-11-15T16:45:44.756Z,1.1
2022-11-15T16:47:48.673Z,1.7
2022-11-15T16:51:59.333Z,1.7
2022-11-15T16:54:03.216Z,1.6
2022-11-15T17:01:18.384Z,1.5
2022-11-15T17:03:25.085Z,1.6
2022-11-15T17:05:28.992Z,2
2022-11-15T17:07:33.005Z,1.9
2022-11-15T17:09:36.813Z,1.4
2022-11-15T17:11:40.735Z,1.6
2022-11-15T17:15:48.572Z,1.3
2022-11-15T17:17:55.305Z,1.6
2022-11-15T17:19:59.234Z,8.7
2022-11-15T17:22:03.141Z,1.8
2022-11-15T17:24:07.065Z,1.4
2022-11-15T17:28:14.902Z,1.8
2022-11-15T17:32:25.556Z,1.6
2022-11-15T17:40:41.214Z,2.4
2022-11-15T17:46:55.883Z,2.2
2022-11-15T17:51:03.726Z,1.6
2022-11-15T17:56:14.968Z,2.6
2022-11-15T17:58:18.875Z,1.7
2022-11-15T18:00:26.171Z,2.6
2022-11-15T18:02:30.094Z,2.3
2022-11-15T18:04:33.982Z,1.7
2022-11-15T18:06:37.899Z,2.7
2022-11-15T18:08:41.809Z,1.8
2022-11-15T18:10:45.729Z,1.2
2022-11-15T18:12:49.623Z,2.7
2022-11-15T18:14:56.347Z,3.2
2022-11-15T18:17:00.262Z,2.9
2022-11-15T18:19:04.184Z,3.4
2022-11-15T18:21:08.102Z,3.7
2022-11-15T18:23:11.993Z,2.6
2022-11-15T18:25:15.875Z,1.9
2022-11-15T18:27:19.790Z,1.4
2022-11-15T18:29:26.509Z,1.6
2022-11-15T18:31:30.421Z,2.3
2022-11-15T18:33:34.680Z,2.2
2022-11-15T18:35:38.245Z,2.5
2022-11-15T18:37:42.131Z,3.3
2022-11-15T18:39:51.049Z,2.6
2022-11-15T18:43:56.691Z,2.3
2022-11-15T18:48:04.503Z,2.9
2022-11-15T18:51:11.784Z,2
2022-11-15T18:55:19.594Z,2.5
2022-11-15T18:57:26.347Z,3.3
2022-11-15T19:01:34.314Z,2.9
2022-11-15T19:05:41.936Z,3.7
2022-11-15T19:07:45.831Z,2.7
2022-11-15T19:11:56.459Z,4.7
2022-11-15T19:16:04.255Z,2.9
2022-11-15T19:18:08.165Z,4.1
2022-11-15T19:20:12.050Z,2.7
2022-11-15T19:22:15.954Z,2.8
2022-11-15T19:24:19.863Z,3.1
2022-11-15T19:26:26.590Z,4.1
2022-11-15T19:28:30.475Z,4
2022-11-15T19:30:34.387Z,4.2
2022-11-15T19:32:38.289Z,4.1
2022-11-15T19:34:42.178Z,3.1
2022-11-15T19:36:46.086Z,2.5
2022-11-15T19:38:50.002Z,3.2
2022-11-15T19:40:58.165Z,3.6
2022-11-15T19:45:05.974Z,3.1
2022-11-15T19:47:35.651Z,3.5
2022-11-15T19:49:39.543Z,3.5
2022-11-15T19:51:43.424Z,3
2022-11-15T19:53:50.144Z,2.7
2022-11-15T19:55:54.027Z,3.7
2022-11-15T19:57:57.934Z,4.3
2022-11-15T20:00:06.835Z,3.7
2022-11-15T20:02:05.755Z,4.5
2022-11-15T20:04:10.016Z,3.9
2022-11-15T20:06:13.538Z,4.3
2022-11-15T20:08:20.240Z,4
2022-11-15T20:10:24.149Z,3.8
2022-11-15T20:12:28.044Z,4.3
2022-11-15T20:14:31.928Z,3.9
2022-11-15T20:20:43.639Z,3.8
2022-11-15T20:22:50.330Z,5.2
2022-11-15T20:24:54.238Z,4.4
2022-11-15T20:26:58.144Z,2.8
2022-11-15T20:29:02.088Z,3.9
2022-11-15T20:31:05.940Z,4
2022-11-15T20:33:09.843Z,4.5
2022-11-15T20:35:13.714Z,5.2
2022-11-15T20:39:24.327Z,4.4
2022-11-15T20:41:28.220Z,4.9
2022-11-15T20:42:31.579Z,3.3
2022-11-15T20:44:35.474Z,5
2022-11-15T20:46:39.353Z,4.7
2022-11-15T20:48:43.254Z,4.6
2022-11-15T20:50:49.951Z,5.2
2022-11-15T20:52:53.859Z,4.7
2022-11-15T20:54:57.746Z,4.2
2022-11-15T20:57:01.712Z,3.8
2022-11-15T20:59:05.563Z,5.2
2022-11-15T21:01:09.509Z,4.5
2022-11-15T21:03:13.335Z,4.1
2022-11-15T21:05:20.052Z,5
2022-11-15T21:07:24.000Z,4.2
2022-11-15T21:09:27.827Z,4.5
2022-11-15T21:11:31.723Z,3.6
2022-11-15T21:13:35.652Z,5.5
2022-11-15T21:15:39.528Z,4.8
2022-11-15T21:17:43.409Z,3.8
2022-11-15T21:19:50.111Z,4
2022-11-15T21:21:53.991Z,3.9
2022-11-15T21:23:57.885Z,4.5
2022-11-15T21:28:05.680Z,4.8
2022-11-15T21:30:09.614Z,3.3
2022-11-15T21:32:13.491Z,4.2
2022-11-15T21:34:20.182Z,4.3
2022-11-15T21:36:24.095Z,4.3
2022-11-15T21:38:27.974Z,5
2022-11-15T21:39:31.319Z,4.2
2022-11-15T21:41:35.237Z,5
2022-11-15T21:45:42.999Z,2.2
2022-11-15T21:47:49.715Z,6.2
2022-11-15T21:49:53.606Z,4.9
2022-11-15T21:51:57.499Z,4.4
2022-11-15T21:54:01.389Z,6.3
2022-11-15T21:56:05.312Z,3.8
2022-11-15T22:00:13.094Z,6.1
2022-11-15T22:04:23.729Z,5.3
2022-11-15T22:06:27.638Z,5.8
2022-11-15T22:10:35.405Z,6
2022-11-15T22:20:57.731Z,5.1
2022-11-15T22:23:01.652Z,5.8
2022-11-15T22:25:05.619Z,5.4
2022-11-15T22:27:09.458Z,5.4
2022-11-15T22:29:13.349Z,6.4
2022-11-15T22:31:20.050Z,5
2022-11-15T22:33:23.968Z,5.2
2022-11-15T22:35:27.893Z,4.6
2022-11-15T22:36:46.822Z,6
2022-11-15T22:38:35.499Z,5.3
2022-11-15T22:40:39.036Z,6
2022-11-15T22:42:42.938Z,6.1
2022-11-15T22:44:49.681Z,6.4
2022-11-15T22:46:53.567Z,5.4
2022-11-15T22:49:02.119Z,5.5
2022-11-15T22:51:01.378Z,5.5
2022-11-15T22:53:05.281Z,6.4
2022-11-15T22:55:09.215Z,6.4
2022-11-15T22:57:13.085Z,6.4
2022-11-15T22:59:19.825Z,6.6
2022-11-15T23:01:23.739Z,8.5
2022-11-15T23:03:27.784Z,7.1
2022-11-15T23:05:31.580Z,5.9
2022-11-15T23:07:35.543Z,6.5
2022-11-15T23:09:39.365Z,5.7
2022-11-15T23:11:43.282Z,6.7
2022-11-15T23:15:53.891Z,6.1
2022-11-15T23:17:57.795Z,7.7
2022-11-15T23:20:22.065Z,8.2
2022-11-15T23:22:05.629Z,5.1
2022-11-15T23:24:09.536Z,6.1
2022-11-15T23:26:13.433Z,7.5
2022-11-15T23:28:20.138Z,8
2022-11-15T23:30:24.037Z,5.9
2022-11-15T23:32:27.940Z,6.5
2022-11-15T23:34:51.865Z,8.9
2022-11-15T23:36:55.753Z,6.5
2022-11-15T23:41:06.382Z,7.2
2022-11-15T23:43:10.281Z,7.3
2022-11-15T23:49:22.040Z,6.3
2022-11-15T23:53:29.841Z,6.6
2022-11-15T23:55:36.557Z,8.7
2022-11-15T23:59:44.359Z,7.9
